Bei Facebook empfehlenBei Twitter postenGoogle plusPinterest

Das Wetter im Erzgebirge am 14.04.2017

Wetter und Klima am 14.04.2017 Holzhau im Erzgebirge (630m ü.NN)
Letzte gemessene Temperatur und Uhrzeit der Messung23:45:00 Uhr4.70 °C
Temperatur (Maximum / Höchstwert) und Uhrzeit der Messung16:45:00 Uhr11.50 °C
Temperatur (Minimum / Tiefstwert) und Uhrzeit der Messung07:00:001.00 °C
Errechneter Absolutwert der Temperaturschwankungen zwischen Tmin und Tmax des Tages10.50 K
Errechnete Tagesmitteltemperatur6.10000 °C
Gesamt - Niederschlag des Tages (in flüssiger Form)0.00 Liter / m²
Luftdruck (Maximum / Höchstwert) und Zeitpunkt der Messung11:30:00 Uhr1011.00 hPa
Luftdruck (Minimum / Tiefstwert) und Zeitpunkt der Messung03:00:00 Uhr1008.70 hPa
Errechneter Absolutwert der Luftdruckschwankungen des Tages2.30 hPa
Höchste gemessene Windgeschwindigkeit und Uhrzeit der Messung11:30:00 Uhr9.72 km/h
Errechnete Windhäufigkeit in Relation zu den Messwerten des Tages39.58333 %
Niedrigste Windkühle (Windchill) und Zeitpunkt der Messung05:15:00 Uhr0.60 °C
Taupunkt (Maximum / Höchstwert) und Uhrzeit der Messung16:45:00 Uhr2.30 °C
Taupunkt (Minimum / Tiefstwert) und Uhrzeit der Messung07:00:00-0.60 °C
Anzahl der automatisch eingelesenen Messwerte 96

Detaillierte Wetter- und Klima- Messwerte für den 14.04.2017 in Holzhau im Erzgebirge (630m ü.NN)
ZeitTemperaturLuftdruckRel. LuftfeuchteWindWindrichtungWindchillTaupunktNiederschlag l/m²
23:45:004.70 °C1010.50 hPa82.00 %1.90 °C 
23:30:004.80 °C1010.60 hPa82.00 %2.00 °C 
23:15:004.80 °C1010.60 hPa81.00 %1.80 °C 
23:00:004.90 °C1010.90 hPa81.00 %1.90 °C 
22:45:004.90 °C1010.70 hPa80.00 %1.70 °C 
22:30:005.00 °C1010.70 hPa80.00 %1.80 °C 
22:15:005.10 °C1010.60 hPa78.00 %1.60 °C 
22:00:005.20 °C1010.80 hPa78.00 %1.70 °C 
21:45:005.30 °C1010.60 hPa78.00 %1.80 °C 
21:30:005.40 °C1010.40 hPa77.00 %1.70 °C 
21:15:005.50 °C1010.60 hPa75.00 %1.40 °C 
21:00:005.60 °C1010.60 hPa74.00 %1.30 °C 
20:45:005.80 °C1010.40 hPa72.00 %1.20 °C 
20:30:006.10 °C1010.30 hPa69.00 %0.90 °C 
20:15:006.50 °C1010.10 hPa68.00 %1.00 °C 
20:00:006.90 °C1010.00 hPa66.00 %1.00 °C 
19:45:007.40 °C1009.90 hPa65.00 %1.30 °C 
19:30:007.90 °C1009.80 hPa63.00 %1.30 °C 
19:15:008.50 °C1009.80 hPa62.00 %1.60 °C 
19:00:008.90 °C1009.90 hPa61.00 %1.80 °C 
18:45:009.00 °C1009.90 hPa59.00 %1.40 °C 
18:30:009.50 °C1009.90 hPa58.00 %1.70 °C 
18:15:009.90 °C1009.90 hPa57.00 %1.80 °C 
18:00:0010.20 °C1010.20 hPa55.00 %1.60 °C 
17:45:0010.90 °C1010.10 hPa54.00 %2.52 km/hW10.90 °C2.00 °C 
17:30:0010.90 °C1010.20 hPa53.00 %2.88 km/hW10.90 °C1.70 °C 
17:15:0011.20 °C1010.20 hPa53.00 %2.00 °C 
17:00:0011.20 °C1010.00 hPa51.00 %3.96 km/hWNW11.20 °C1.50 °C 
16:45:0011.50 °C1010.30 hPa53.00 %3.24 km/hW11.50 °C2.30 °C 
16:30:0011.10 °C1010.10 hPa53.00 %3.60 km/hNW11.10 °C1.90 °C 
16:15:0010.40 °C1010.30 hPa56.00 %7.92 km/hNW9.50 °C2.00 °C 
16:00:009.80 °C1010.40 hPa58.00 %1.80 km/hWNW9.80 °C1.90 °C 
15:45:009.90 °C1010.40 hPa54.00 %7.92 km/hW8.90 °C1.00 °C 
15:30:0010.50 °C1010.50 hPa54.00 %1.44 km/hW10.50 °C1.60 °C 
15:15:0010.10 °C1010.50 hPa55.00 %4.68 km/hNNW10.10 °C1.50 °C 
15:00:009.80 °C1010.50 hPa55.00 %1.20 °C 
14:45:0010.00 °C1010.70 hPa53.00 %0.90 °C 
14:30:0010.10 °C1010.60 hPa53.00 %1.44 km/hWNW10.10 °C1.00 °C 
14:15:0010.30 °C1010.70 hPa54.00 %1.44 km/hN10.30 °C1.40 °C 
14:00:009.80 °C1010.50 hPa56.00 %2.52 km/hWSW9.80 °C1.50 °C 
13:45:009.60 °C1010.60 hPa57.00 %1.50 °C 
13:30:008.90 °C1010.60 hPa58.00 %8.64 km/hWNW7.60 °C1.10 °C 
13:15:009.30 °C1010.70 hPa55.00 %9.36 km/hW7.90 °C0.70 °C 
13:00:009.60 °C1010.70 hPa55.00 %5.04 km/hNW9.30 °C1.00 °C 
12:45:009.30 °C1010.80 hPa54.00 %7.92 km/hWNW8.20 °C0.50 °C 
12:30:008.70 °C1010.80 hPa60.00 %7.20 km/hWNW7.70 °C1.40 °C 
12:15:008.10 °C1010.80 hPa62.00 %7.20 km/hN7.00 °C1.30 °C 
12:00:008.60 °C1010.80 hPa64.00 %3.96 km/hSW8.60 °C2.20 °C 
11:45:007.50 °C1010.80 hPa65.00 %5.76 km/hWNW6.70 °C1.40 °C 
11:30:007.80 °C1011.00 hPa67.00 %9.72 km/hWNW6.10 °C2.10 °C 
11:15:007.30 °C1010.80 hPa68.00 %1.80 °C 
11:00:006.70 °C1010.90 hPa70.00 %3.96 km/hNNW6.70 °C1.60 °C 
10:45:006.40 °C1010.90 hPa71.00 %9.36 km/hWNW4.50 °C1.50 °C 
10:30:006.30 °C1010.70 hPa75.00 %2.52 km/hWNW6.30 °C2.20 °C 
10:15:005.40 °C1010.60 hPa77.00 %8.64 km/hWNW3.40 °C1.70 °C 
10:00:005.40 °C1010.60 hPa78.00 %3.96 km/hW5.40 °C1.90 °C 
09:45:004.90 °C1010.50 hPa81.00 %2.52 km/hW4.90 °C1.90 °C 
09:30:004.70 °C1010.50 hPa82.00 %4.32 km/hNW4.70 °C1.90 °C 
09:15:004.40 °C1010.30 hPa83.00 %1.80 °C 
09:00:004.30 °C1010.40 hPa83.00 %0.36 km/hWNW4.30 °C1.70 °C 
08:45:004.10 °C1010.40 hPa84.00 %1.44 km/hWNW4.10 °C1.60 °C 
08:30:003.80 °C1010.30 hPa87.00 %2.16 km/hNW3.80 °C1.80 °C 
08:15:003.30 °C1010.20 hPa89.00 %1.70 °C 
08:00:002.60 °C1010.20 hPa91.00 %1.30 °C 
07:45:002.10 °C1009.90 hPa91.00 %0.80 °C 
07:30:001.40 °C1009.80 hPa90.00 %-0.10 °C 
07:15:001.10 °C1009.70 hPa90.00 %-0.40 °C 
07:00:001.00 °C1009.50 hPa89.00 %-0.60 °C 
06:45:001.30 °C1009.40 hPa89.00 %-0.30 °C 
06:30:001.80 °C1009.10 hPa89.00 %0.20 °C 
06:15:002.20 °C1009.10 hPa89.00 %0.60 °C 
06:00:002.40 °C1009.10 hPa89.00 %0.80 °C 
05:45:002.60 °C1009.00 hPa89.00 %1.80 km/hWSW2.60 °C1.00 °C 
05:30:002.60 °C1008.90 hPa88.00 %0.80 °C 
05:15:002.80 °C1008.90 hPa88.00 %7.92 km/hWNW0.60 °C1.00 °C 
05:00:003.10 °C1009.10 hPa87.00 %0.36 km/hW3.10 °C1.20 °C 
04:45:003.30 °C1009.20 hPa87.00 %1.30 °C 
04:30:003.50 °C1009.00 hPa87.00 %1.50 °C 
04:15:003.60 °C1008.90 hPa86.00 %1.50 °C 
04:00:003.60 °C1009.00 hPa86.00 %1.50 °C 
03:45:003.80 °C1008.90 hPa86.00 %5.04 km/hWNW2.70 °C1.70 °C 
03:30:003.80 °C1008.90 hPa86.00 %1.70 °C 
03:15:003.80 °C1008.80 hPa86.00 %4.68 km/hW3.80 °C1.70 °C 
03:00:003.90 °C1008.70 hPa85.00 %1.60 °C 
02:45:003.90 °C1008.80 hPa85.00 %1.60 °C 
02:30:004.00 °C1008.90 hPa85.00 %1.70 °C 
02:15:004.10 °C1008.90 hPa85.00 %1.80 °C 
02:00:004.10 °C1008.90 hPa85.00 %1.80 °C 
01:45:004.10 °C1008.80 hPa85.00 %1.80 °C 
01:30:004.10 °C1008.90 hPa85.00 %1.80 °C 
01:15:004.20 °C1008.80 hPa84.00 %1.70 °C 
01:00:004.20 °C1008.90 hPa85.00 %4.32 km/hNW4.20 °C1.90 °C 
00:45:004.20 °C1009.00 hPa85.00 %1.90 °C 
00:30:004.30 °C1009.00 hPa85.00 %2.00 °C 
00:15:004.20 °C1009.00 hPa85.00 %1.90 °C 
00:00:004.20 °C1009.10 hPa85.00 %1.90 °C 

Permanenter Link zu dieser Seite: Wetter im Erzgebirge am 14.04.2017
Performance-Info: Die Erstellung der Seite / Statistik(en) / Tabelle(n) erforderte 5 Datenbankserver-Abfrage(n) und dauerte 101 Millisekunden. (Dieser Messwert ist von der Gesamt-Auslastung des Servers abhängig.)
Erzgebirge - Wetter | Erzgebirge - Wetter (Mobilgeräte) | Komplette Klimadatenbank